Time;durP1;ratioP1;P1;durP2;ratioP2;P2;SDS_P1;SDS_P2;PMS_P1;PMS_P2;Temp;Humidity;BMP_temperature;BMP_pressure;BME280_temperature;BME280_humidity;BME280_pressure;Samples;Min_cycle;Max_cycle;Signal;HPM_P1;HPM_P2
2023/07/20 00:01:13;;;;;;;7.55;3.22;;;;;;;25.38;53.95;99252.97;5038951;28;20497;-87
2023/07/20 00:03:39;;;;;;;2.15;1.27;;;;;;;25.38;53.55;99241.34;5038916;28;20043;-82
2023/07/20 00:06:04;;;;;;;4.00;2.00;;;;;;;25.55;52.63;99239.91;5049896;28;20024;-81
2023/07/20 00:08:30;;;;;;;6.07;2.53;;;;;;;25.78;51.96;99248.75;5049331;28;20033;-84
2023/07/20 00:10:56;;;;;;;1.33;1.05;;;;;;;25.89;51.61;99253.25;5050173;28;20120;-83
2023/07/20 00:13:21;;;;;;;3.03;1.92;;;;;;;26.04;51.43;99259.19;5048377;28;21446;-83
2023/07/20 00:15:47;;;;;;;8.60;2.38;;;;;;;26.33;50.62;99253.94;5050159;28;20053;-82
2023/07/20 00:18:13;;;;;;;13.88;3.28;;;;;;;26.47;50.28;99252.72;5049346;28;20431;-82
2023/07/20 00:20:39;;;;;;;15.77;2.30;;;;;;;26.26;50.58;99223.91;5049958;28;20051;-81
2023/07/20 00:23:04;;;;;;;3.38;2.40;;;;;;;26.22;51.34;99237.81;5049645;28;20029;-83
2023/07/20 00:25:30;;;;;;;4.45;2.10;;;;;;;25.70;52.09;99191.81;5049306;28;20130;-81
2023/07/20 00:27:55;;;;;;;8.15;2.08;;;;;;;26.06;51.77;99217.53;5050132;28;20161;-82
2023/07/20 00:30:21;;;;;;;2.30;1.83;;;;;;;26.16;51.12;99201.38;5049482;28;20036;-83
2023/07/20 00:32:46;;;;;;;3.40;2.00;;;;;;;26.40;50.58;99201.06;5048582;28;20036;-83
2023/07/20 00:35:12;;;;;;;10.77;2.42;;;;;;;26.58;49.87;99170.66;5050112;28;20032;-83
2023/07/20 00:37:39;;;;;;;3.92;2.35;;;;;;;26.60;49.86;99161.41;5050269;28;20060;-83
2023/07/20 00:40:05;;;;;;;3.45;2.42;;;;;;;26.88;49.72;99180.56;5049655;28;20048;-83
2023/07/20 00:42:31;;;;;;;3.50;1.83;;;;;;;26.60;49.83;99150.59;5050130;28;20112;-83
2023/07/20 00:44:56;;;;;;;3.03;2.38;;;;;;;26.69;49.80;99183.22;5049406;28;20116;-83
2023/07/20 00:47:22;;;;;;;8.27;3.67;;;;;;;26.69;49.47;99175.13;5049468;28;20039;-82
2023/07/20 00:49:48;;;;;;;3.13;2.58;;;;;;;26.59;48.95;99138.06;5049019;28;20044;-83
2023/07/20 00:52:14;;;;;;;5.75;2.50;;;;;;;26.97;48.01;99146.38;5049363;28;20037;-83
2023/07/20 00:54:41;;;;;;;3.95;2.00;;;;;;;26.95;48.02;99143.81;5049144;28;20032;-83
2023/07/20 00:57:08;;;;;;;3.38;1.73;;;;;;;27.07;47.24;99143.72;5049186;28;20039;-83
2023/07/20 00:59:36;;;;;;;3.60;1.98;;;;;;;27.02;47.10;99133.31;5050721;28;20029;-82
2023/07/20 01:02:02;;;;;;;5.70;1.52;;;;;;;27.21;46.37;99128.88;5053084;28;20634;-83
2023/07/20 01:04:28;;;;;;;3.80;2.55;;;;;;;27.32;46.00;99145.84;5053351;28;20111;-83
2023/07/20 01:07:09;;;;;;;3.83;1.98;;;;;;;27.43;45.54;99136.72;5039189;28;20103;-83
2023/07/20 01:09:52;;;;;;;3.45;1.75;;;;;;;27.45;45.65;99158.22;5041778;28;20029;-83
2023/07/20 01:12:32;;;;;;;3.28;1.45;;;;;;;27.35;45.31;99138.47;5053424;28;20025;-82
2023/07/20 01:14:58;;;;;;;2.28;1.13;;;;;;;27.40;44.83;99139.72;5053639;28;20120;-82
2023/07/20 01:17:24;;;;;;;9.50;1.83;;;;;;;27.59;44.55;99148.81;5052630;28;20132;-84
2023/07/20 01:19:49;;;;;;;2.83;1.88;;;;;;;27.42;44.39;99088.13;5068428;28;20048;-84
2023/07/20 01:23:00;;;;;;;2.67;1.77;;;;;;;27.77;44.68;99146.22;5053232;28;20064;-83
2023/07/20 01:25:35;;;;;;;8.27;1.50;;;;;;;27.84;44.90;99150.06;5053044;28;20033;-83
2023/07/20 01:28:33;;;;;;;3.40;2.08;;;;;;;27.94;44.03;99145.44;5052981;28;20071;-83
2023/07/20 01:31:17;;;;;;;2.80;2.28;;;;;;;27.89;43.87;99142.31;5053326;28;20033;-81
2023/07/20 01:33:44;;;;;;;3.63;1.70;;;;;;;27.83;44.18;99108.53;5052455;28;20033;-82
2023/07/20 01:36:10;;;;;;;3.80;2.50;;;;;;;27.86;44.51;99112.81;5052019;28;20116;-82
2023/07/20 01:38:37;;;;;;;3.13;1.48;;;;;;;27.79;44.73;99104.44;5052209;28;20024;-82
2023/07/20 01:41:03;;;;;;;2.80;1.15;;;;;;;27.62;44.78;99118.72;5051414;28;20051;-82
2023/07/20 01:43:29;;;;;;;3.50;2.30;;;;;;;27.58;44.78;99129.00;5052782;28;20025;-81
2023/07/20 01:45:54;;;;;;;4.18;2.40;;;;;;;27.31;44.40;99057.53;5052779;28;20507;-82
2023/07/20 01:48:21;;;;;;;3.88;2.55;;;;;;;27.43;44.96;99098.81;5055122;28;20090;-83
2023/07/20 01:50:51;;;;;;;3.95;1.88;;;;;;;27.45;45.49;99118.50;5053519;28;20025;-83
2023/07/20 01:53:16;;;;;;;10.88;1.65;;;;;;;27.19;45.70;99107.38;5050683;28;20028;-82
2023/07/20 01:55:41;;;;;;;3.65;2.17;;;;;;;27.21;46.01;99135.16;5051226;28;20125;-82
2023/07/20 01:58:15;;;;;;;4.28;2.50;;;;;;;27.03;47.34;99150.38;5053756;28;20032;-83
2023/07/20 02:00:40;;;;;;;2.83;1.90;;;;;;;26.95;47.27;99126.75;5069289;28;20033;-82
2023/07/20 02:03:06;;;;;;;2.75;1.80;;;;;;;26.88;48.14;99141.81;5052354;28;20086;-83
2023/07/20 02:05:32;;;;;;;2.90;1.77;;;;;;;26.77;47.46;99143.69;5051995;28;20440;-86
2023/07/20 02:07:57;;;;;;;3.25;2.00;;;;;;;26.65;47.59;99119.53;5052176;28;20036;-83
2023/07/20 02:10:23;;;;;;;8.43;2.05;;;;;;;26.47;47.66;99106.72;5052173;28;20535;-83
2023/07/20 02:12:48;;;;;;;2.55;1.58;;;;;;;26.32;48.18;99100.88;5051159;28;20487;-84
2023/07/20 02:15:16;;;;;;;3.20;1.27;;;;;;;26.46;47.31;99118.50;5052031;28;20067;-83
2023/07/20 02:17:43;;;;;;;3.80;2.00;;;;;;;26.52;46.45;99123.38;5051975;28;20029;-84
2023/07/20 02:20:12;;;;;;;2.47;1.40;;;;;;;26.48;47.30;99143.59;5052411;28;20048;-84
2023/07/20 02:22:38;;;;;;;3.03;1.50;;;;;;;26.19;47.36;99103.78;5052057;28;20112;-84
2023/07/20 02:25:05;;;;;;;2.03;1.42;;;;;;;26.08;47.58;99093.09;5051586;28;20529;-85
2023/07/20 02:27:30;;;;;;;3.78;1.38;;;;;;;26.38;46.63;99126.47;5051951;28;20029;-84
2023/07/20 02:29:56;;;;;;;2.45;1.77;;;;;;;26.36;47.31;99144.69;5051551;28;20040;-84
2023/07/20 02:32:21;;;;;;;2.92;1.95;;;;;;;26.05;47.42;99094.22;5052902;28;20033;-84
2023/07/20 02:34:47;;;;;;;2.40;1.20;;;;;;;25.96;47.09;99089.59;5050775;28;20056;-84
2023/07/20 02:37:12;;;;;;;2.67;2.20;;;;;;;26.08;47.58;99120.97;5051755;28;20087;-84
2023/07/20 02:39:39;;;;;;;3.92;2.08;;;;;;;26.07;47.60;99124.69;5052125;28;20029;-84
2023/07/20 02:42:04;;;;;;;2.00;1.25;;;;;;;25.95;47.97;99117.63;5051283;28;20025;-83
2023/07/20 02:44:30;;;;;;;3.70;2.05;;;;;;;25.86;48.08;99111.19;5051181;28;20029;-83
2023/07/20 02:46:56;;;;;;;4.57;2.45;;;;;;;25.89;47.86;99113.59;5050795;28;20025;-84
2023/07/20 02:49:21;;;;;;;4.07;1.70;;;;;;;25.63;47.89;99070.00;5051513;28;20123;-83
2023/07/20 02:51:47;;;;;;;7.03;1.85;;;;;;;25.94;48.00;99120.47;5051970;28;20112;-81
2023/07/20 02:54:12;;;;;;;1.85;1.02;;;;;;;26.00;48.17;99136.16;5052079;28;20124;-81
2023/07/20 02:56:38;;;;;;;2.50;1.52;;;;;;;25.99;47.90;99129.03;5052080;28;20403;-84
2023/07/20 02:59:03;;;;;;;6.63;2.72;;;;;;;25.96;47.97;99137.38;5051046;28;20067;-84
2023/07/20 03:01:29;;;;;;;6.85;2.33;;;;;;;25.80;48.39;99122.53;5055259;28;20032;-84
2023/07/20 03:03:55;;;;;;;3.92;2.10;;;;;;;25.80;48.77;99117.13;5058554;28;20055;-83
2023/07/20 03:06:21;;;;;;;1.85;1.40;;;;;;;25.50;50.04;99123.34;5058615;28;20063;-82
2023/07/20 03:08:51;;;;;;;3.50;2.10;;;;;;;25.37;50.75;99128.94;5064227;28;20115;-82
2023/07/20 03:11:18;;;;;;;4.03;2.03;;;;;;;25.67;50.04;99111.06;5067222;28;20035;-84
2023/07/20 03:13:44;;;;;;;3.08;1.27;;;;;;;25.64;49.94;99097.84;5069777;28;20025;-84
2023/07/20 03:16:12;;;;;;;2.53;1.65;;;;;;;25.66;49.45;99093.19;5072146;28;20049;-85
2023/07/20 03:18:43;;;;;;;4.85;1.98;;;;;;;25.68;49.23;99085.78;5072900;28;20029;-86
2023/07/20 03:21:13;;;;;;;4.10;1.55;;;;;;;25.78;49.08;99094.81;5072184;28;20108;-85
2023/07/20 03:23:40;;;;;;;2.55;1.52;;;;;;;25.99;49.20;99123.63;5070495;28;20048;-86
2023/07/20 03:26:08;;;;;;;4.03;2.10;;;;;;;26.05;49.12;99112.28;5070897;28;20029;-84
2023/07/20 03:28:34;;;;;;;3.95;1.95;;;;;;;26.22;49.35;99127.00;5071100;28;20037;-84
2023/07/20 03:31:00;;;;;;;13.73;2.08;;;;;;;25.79;48.96;99074.03;5070977;28;20047;-83
2023/07/20 03:33:27;;;;;;;2.00;1.65;;;;;;;25.92;49.80;99099.84;5072366;28;20052;-82
2023/07/20 03:35:53;;;;;;;5.28;2.63;;;;;;;25.96;49.30;99107.66;5086793;28;20167;-83
2023/07/20 03:38:20;;;;;;;15.25;1.80;;;;;;;25.99;49.04;99096.63;5066016;28;20068;-82
2023/07/20 03:41:05;;;;;;;3.03;1.60;;;;;;;26.20;49.51;99115.47;5063278;28;20032;-83
2023/07/20 03:43:31;;;;;;;4.65;1.92;;;;;;;26.12;49.88;99096.38;5060587;28;20078;-84
2023/07/20 03:45:56;;;;;;;5.70;2.17;;;;;;;26.26;49.73;99113.06;5057884;28;20037;-82
2023/07/20 03:48:24;;;;;;;7.20;2.08;;;;;;;26.39;49.44;99114.69;5056012;28;20507;-85
2023/07/20 03:50:51;;;;;;;6.10;1.83;;;;;;;26.33;48.19;99093.59;5051231;28;20429;-83
2023/07/20 03:53:17;;;;;;;4.05;2.05;;;;;;;26.38;48.20;99083.22;5051906;28;20085;-85
2023/07/20 03:55:47;;;;;;;7.30;2.05;;;;;;;26.59;48.13;99108.31;5053499;28;20414;-85
2023/07/20 03:58:14;;;;;;;5.30;2.13;;;;;;;26.65;48.08;99101.50;5053884;28;20043;-84
2023/07/20 04:00:40;;;;;;;2.42;1.50;;;;;;;26.58;47.83;99086.81;5055111;28;20107;-85
2023/07/20 04:03:05;;;;;;;3.63;2.38;;;;;;;26.56;48.55;99110.44;5053719;28;20483;-84
2023/07/20 04:05:31;;;;;;;2.25;1.50;;;;;;;26.60;49.08;99114.56;5047252;28;20033;-87
2023/07/20 04:07:56;;;;;;;5.13;2.78;;;;;;;26.59;48.86;99088.53;5049602;28;20101;-85
2023/07/20 04:10:22;;;;;;;6.13;2.28;;;;;;;26.66;49.35;99094.25;5047513;28;20037;-86
2023/07/20 04:12:47;;;;;;;2.97;1.85;;;;;;;26.90;49.26;99127.16;5051822;28;20098;-84
2023/07/20 04:15:14;;;;;;;6.10;2.85;;;;;;;26.79;49.09;99078.63;5046377;28;20044;-84
2023/07/20 04:17:43;;;;;;;3.25;2.03;;;;;;;26.88;49.00;99094.00;5050965;28;20025;-87
2023/07/20 04:20:09;;;;;;;5.35;2.05;;;;;;;27.24;48.65;99118.63;5048200;28;20565;-85
2023/07/20 04:22:35;;;;;;;5.07;2.03;;;;;;;27.17;48.50;99112.06;5049736;28;20036;-85
2023/07/20 04:25:00;;;;;;;2.80;1.85;;;;;;;27.16;48.66;99094.13;5044861;28;20037;-85
2023/07/20 04:27:26;;;;;;;6.78;2.25;;;;;;;27.26;48.58;99097.66;5048127;28;20099;-85
2023/07/20 04:29:52;;;;;;;7.72;3.55;;;;;;;27.26;48.79;99086.81;5048407;28;20052;-88
2023/07/20 04:32:17;;;;;;;4.70;2.65;;;;;;;27.59;49.28;99140.69;5048137;28;20034;-89
2023/07/20 04:34:43;;;;;;;3.85;2.20;;;;;;;27.21;48.92;99091.84;5050459;28;20095;-86
2023/07/20 04:37:09;;;;;;;5.70;2.42;;;;;;;27.37;49.70;99107.50;5054284;28;20036;-85
2023/07/20 04:39:34;;;;;;;2.85;1.67;;;;;;;27.71;49.68;99141.38;5050413;28;20498;-87
2023/07/20 04:42:00;;;;;;;5.85;2.35;;;;;;;27.64;50.29;99117.59;5055419;28;20039;-87
2023/07/20 04:44:25;;;;;;;2.92;1.83;;;;;;;27.58;50.01;99120.88;5050190;28;20041;-86
2023/07/20 04:46:50;;;;;;;3.83;2.15;;;;;;;27.77;49.94;99140.78;5048714;28;20445;-86
2023/07/20 04:49:16;;;;;;;3.20;1.77;;;;;;;27.29;50.83;99099.22;5049430;28;20040;-85
2023/07/20 04:51:41;;;;;;;4.80;3.03;;;;;;;27.71;50.70;99141.38;5053272;28;20087;-84
2023/07/20 04:54:07;;;;;;;4.30;2.35;;;;;;;27.64;50.89;99120.28;5056129;28;20017;-86
2023/07/20 04:56:33;;;;;;;5.00;3.03;;;;;;;27.60;51.41;99101.78;5059297;28;20082;-83
2023/07/20 04:58:58;;;;;;;4.30;2.63;;;;;;;27.69;51.06;99120.69;5057270;28;20028;-86
2023/07/20 05:01:24;;;;;;;3.17;2.58;;;;;;;27.81;51.04;99140.34;5056121;28;20062;-87
2023/07/20 05:03:49;;;;;;;5.13;2.35;;;;;;;27.35;51.73;99092.44;5061528;28;20093;-83
2023/07/20 05:06:15;;;;;;;4.40;2.13;;;;;;;27.70;51.50;99135.13;5058627;28;20033;-88
2023/07/20 05:08:41;;;;;;;4.75;2.42;;;;;;;27.78;50.79;99116.25;5066244;28;20025;-86
2023/07/20 05:11:07;;;;;;;3.47;2.92;;;;;;;27.90;50.20;99124.19;5070209;28;20115;-89
2023/07/20 05:13:33;;;;;;;4.00;2.33;;;;;;;28.00;49.99;99131.31;5071536;28;20029;-87
2023/07/20 05:15:58;;;;;;;4.45;2.22;;;;;;;28.19;49.91;99124.09;5071255;28;20132;-87
2023/07/20 05:18:24;;;;;;;5.28;2.50;;;;;;;28.15;49.95;99117.31;5076029;28;20037;-91
2023/07/20 05:20:51;;;;;;;6.30;2.72;;;;;;;28.18;49.23;99098.88;5073601;28;20266;-90
2023/07/20 05:23:22;;;;;;;6.53;2.53;;;;;;;28.41;48.92;99120.16;5075458;28;20032;-93
2023/07/20 05:25:58;;;;;;;2.78;1.95;;;;;;;28.74;48.53;99143.09;5070678;28;20025;-91
2023/07/20 05:28:24;;;;;;;4.40;2.45;;;;;;;28.92;48.33;99131.44;5074181;28;20037;-91
2023/07/20 05:30:51;;;;;;;3.80;2.30;;;;;;;28.86;47.91;99097.59;5071075;28;20029;-90
2023/07/20 05:33:17;;;;;;;2.35;2.13;;;;;;;29.11;47.37;99123.09;5071779;28;20557;-91
2023/07/20 05:35:43;;;;;;;4.10;2.78;;;;;;;28.99;46.01;99075.50;5066116;28;20668;-92
2023/07/20 05:38:08;;;;;;;3.75;2.22;;;;;;;29.15;44.39;99095.63;5069473;28;20036;-90
2023/07/20 05:40:40;;;;;;;4.10;2.15;;;;;;;29.32;44.68;99102.09;5070921;28;20033;-88
2023/07/20 05:43:05;;;;;;;5.53;3.08;;;;;;;29.85;44.48;99127.47;5067435;28;20275;-91
2023/07/20 05:45:31;;;;;;;7.53;2.45;;;;;;;29.93;44.19;99130.22;5067562;28;20052;-90
2023/07/20 05:47:56;;;;;;;4.75;2.95;;;;;;;30.22;44.83;99134.44;5068290;28;20044;-90
2023/07/20 05:50:22;;;;;;;6.82;2.38;;;;;;;30.27;43.88;99123.94;5066882;28;20044;-89
2023/07/20 05:52:47;;;;;;;6.32;2.40;;;;;;;30.22;45.88;99091.78;5083378;28;20029;-90
2023/07/20 05:55:13;;;;;;;4.57;3.13;;;;;;;30.34;45.80;99087.75;5069914;28;20023;-90
2023/07/20 05:57:43;;;;;;;5.32;3.35;;;;;;;30.80;44.90;99122.75;5069031;28;20040;-92
2023/07/20 06:00:09;;;;;;;5.18;2.45;;;;;;;31.11;45.48;99099.50;5069997;28;20001;-90
2023/07/20 06:02:35;;;;;;;4.95;3.08;;;;;;;31.39;44.46;99095.41;5068779;28;20171;-90
2023/07/20 06:05:00;;;;;;;2.47;1.83;;;;;;;31.41;43.97;99070.72;5072365;28;20025;-87
2023/07/20 06:07:26;;;;;;;4.55;2.75;;;;;;;31.62;42.37;99105.63;5064325;28;20040;-87
2023/07/20 06:09:56;;;;;;;4.57;3.42;;;;;;;31.88;42.40;99085.44;5057338;28;20067;-87
2023/07/20 06:12:21;;;;;;;4.00;2.42;;;;;;;32.17;42.38;99098.50;5062800;28;20025;-84
2023/07/20 06:14:47;;;;;;;7.78;3.30;;;;;;;32.29;42.05;99072.53;5052293;28;20049;-82
2023/07/20 06:17:12;;;;;;;2.97;1.52;;;;;;;32.65;40.53;99091.09;5067643;28;20041;-83
2023/07/20 06:19:38;;;;;;;4.70;2.55;;;;;;;32.44;39.51;99033.56;5046419;28;20037;-89
2023/07/20 06:22:03;;;;;;;6.90;3.25;;;;;;;32.62;39.80;99096.06;5048438;28;20714;-85
2023/07/20 06:24:29;;;;;;;4.15;2.75;;;;;;;32.68;39.47;99067.22;5047711;28;20025;-84
2023/07/20 06:26:54;;;;;;;3.50;2.33;;;;;;;32.94;37.65;99091.44;5044452;28;20666;-83
2023/07/20 06:29:20;;;;;;;5.53;3.38;;;;;;;33.09;37.57;99095.09;5046763;28;20040;-83
2023/07/20 06:31:45;;;;;;;4.13;3.25;;;;;;;33.34;37.46;99068.41;5048095;28;20060;-85
2023/07/20 06:34:11;;;;;;;5.15;2.50;;;;;;;33.40;37.84;99055.91;5046201;28;20075;-84
2023/07/20 06:36:36;;;;;;;3.00;1.80;;;;;;;33.79;36.31;99051.25;5050234;28;20113;-83
2023/07/20 06:39:02;;;;;;;4.57;2.55;;;;;;;34.13;35.89;99071.69;5051768;28;20368;-84
2023/07/20 06:41:27;;;;;;;5.63;2.03;;;;;;;33.97;37.32;99078.19;5051443;28;20032;-82
2023/07/20 06:43:57;;;;;;;4.25;2.00;;;;;;;34.29;35.05;99079.69;5051916;28;20029;-83
2023/07/20 06:46:24;;;;;;;3.70;2.10;;;;;;;34.44;35.16;99058.63;5051243;28;20079;-83
2023/07/20 06:48:49;;;;;;;2.70;1.83;;;;;;;34.56;33.71;99050.75;5049266;28;20087;-84
2023/07/20 06:51:15;;;;;;;3.75;2.63;;;;;;;35.08;32.54;99081.66;5048428;28;20090;-85
2023/07/20 06:53:40;;;;;;;4.63;3.38;;;;;;;34.65;32.77;99058.84;5048679;28;20033;-83
2023/07/20 06:56:06;;;;;;;11.98;2.50;;;;;;;34.64;33.75;99081.81;5051613;28;20021;-83
2023/07/20 06:58:33;;;;;;;2.13;1.05;;;;;;;34.15;31.92;99036.78;5051829;28;20475;-84
2023/07/20 07:00:58;;;;;;;3.03;1.30;;;;;;;34.38;31.54;99045.69;5051954;28;20028;-84
2023/07/20 07:03:24;;;;;;;4.55;2.35;;;;;;;34.76;31.85;99037.31;5051873;28;20449;-84
2023/07/20 07:05:50;;;;;;;2.67;1.48;;;;;;;35.19;30.87;99083.00;5051934;28;20037;-84
2023/07/20 07:08:17;;;;;;;5.32;2.13;;;;;;;35.10;31.48;99057.63;5052214;28;20021;-85
2023/07/20 07:10:43;;;;;;;9.02;2.25;;;;;;;35.44;31.49;99056.03;5052009;28;20043;-84
2023/07/20 07:13:08;;;;;;;4.78;2.67;;;;;;;35.74;31.76;99063.19;5051242;28;20025;-84
2023/07/20 07:15:34;;;;;;;6.20;4.22;;;;;;;36.24;32.19;99061.16;5066691;28;20029;-84
2023/07/20 07:18:00;;;;;;;2.67;2.08;;;;;;;36.57;32.15;99060.44;5051785;28;20029;-84
2023/07/20 07:20:26;;;;;;;4.07;2.78;;;;;;;36.33;31.53;99035.25;5051621;28;20028;-84
2023/07/20 07:22:52;;;;;;;4.85;2.33;;;;;;;36.28;30.82;99059.69;5051599;28;20119;-83
2023/07/20 07:25:17;;;;;;;6.75;2.45;;;;;;;35.75;31.44;99049.25;5051656;28;20037;-85
2023/07/20 07:27:43;;;;;;;9.00;2.28;;;;;;;35.85;32.77;99035.19;5050321;28;20384;-84
2023/07/20 07:30:09;;;;;;;3.05;2.10;;;;;;;36.29;32.12;99033.97;5050873;28;20025;-84
2023/07/20 07:32:34;;;;;;;4.47;2.20;;;;;;;36.97;30.58;99068.78;5051297;28;20510;-84
2023/07/20 07:35:00;;;;;;;2.60;1.42;;;;;;;36.95;29.84;99048.88;5052090;28;20031;-84
2023/07/20 07:37:26;;;;;;;4.00;1.75;;;;;;;36.60;28.43;99051.78;5051338;28;20476;-84
2023/07/20 07:39:51;;;;;;;2.72;1.95;;;;;;;36.56;29.40;99058.75;5051605;28;20029;-84
2023/07/20 07:42:18;;;;;;;4.38;1.88;;;;;;;36.60;29.87;99040.81;5051105;28;20033;-86
2023/07/20 07:44:44;;;;;;;3.53;2.08;;;;;;;36.52;28.83;99017.13;5051146;28;20025;-84
2023/07/20 07:47:10;;;;;;;6.13;3.10;;;;;;;36.72;29.67;99065.75;5066745;28;20518;-84
2023/07/20 07:49:35;;;;;;;4.68;1.95;;;;;;;36.91;28.39;99061.38;5051325;28;20029;-84
2023/07/20 07:52:02;;;;;;;3.50;2.63;;;;;;;37.26;28.40;99048.31;5050973;28;20025;-84
2023/07/20 07:54:29;;;;;;;8.43;1.85;;;;;;;37.33;28.92;99044.72;5050713;28;20029;-85
2023/07/20 07:56:55;;;;;;;4.03;2.15;;;;;;;37.23;27.92;99025.88;5049330;28;20120;-85
2023/07/20 07:59:20;;;;;;;2.38;1.70;;;;;;;36.92;29.02;99050.19;5043691;28;20597;-84
2023/07/20 08:01:47;;;;;;;3.20;1.58;;;;;;;36.74;29.17;99030.72;5046249;28;20032;-84
2023/07/20 08:04:13;;;;;;;5.40;3.97;;;;;;;37.06;29.18;99052.91;5046231;28;20051;-85
2023/07/20 08:06:38;;;;;;;3.45;2.33;;;;;;;37.07;28.66;99044.47;5044584;28;20035;-84
2023/07/20 08:09:04;;;;;;;3.78;3.05;;;;;;;37.18;27.51;99047.63;5043310;28;20036;-84
2023/07/20 08:11:30;;;;;;;2.75;1.92;;;;;;;37.24;28.53;99033.06;5040139;28;20044;-83
2023/07/20 08:13:56;;;;;;;7.35;2.20;;;;;;;37.08;28.19;99028.84;5045022;28;20059;-84
2023/07/20 08:16:22;;;;;;;2.45;1.63;;;;;;;37.36;27.31;99044.28;5046137;28;20565;-84
2023/07/20 08:18:47;;;;;;;3.47;2.20;;;;;;;36.99;28.49;99061.16;5045317;28;20069;-84
2023/07/20 08:21:13;;;;;;;3.15;1.60;;;;;;;36.82;29.03;99033.25;5044366;28;20025;-84
2023/07/20 08:23:38;;;;;;;1.35;1.20;;;;;;;37.00;28.80;99043.63;5059532;28;20467;-84
2023/07/20 08:26:04;;;;;;;2.15;1.73;;;;;;;37.30;28.93;99070.72;5043378;28;20037;-84
2023/07/20 08:28:29;;;;;;;5.32;2.83;;;;;;;37.78;27.66;99033.84;5044699;28;20029;-85
2023/07/20 08:30:54;;;;;;;2.60;1.45;;;;;;;38.15;27.70;99058.91;5045283;28;20476;-86
2023/07/20 08:33:20;;;;;;;5.53;1.80;;;;;;;37.97;27.37;99054.97;5044865;28;20495;-86
2023/07/20 08:35:46;;;;;;;5.55;2.67;;;;;;;37.87;27.46;99070.25;5044546;28;20398;-86
2023/07/20 08:38:12;;;;;;;3.97;1.95;;;;;;;37.78;27.49;99025.59;5041707;28;20026;-87
2023/07/20 08:40:45;;;;;;;2.88;1.45;;;;;;;37.90;27.76;99039.53;5042335;28;20029;-88
2023/07/20 08:43:13;;;;;;;2.88;1.98;;;;;;;37.81;26.61;99049.94;5043770;28;20033;-87
2023/07/20 08:45:40;;;;;;;3.47;1.80;;;;;;;38.34;27.24;99057.16;5059307;28;20498;-87
2023/07/20 08:48:06;;;;;;;3.78;2.08;;;;;;;38.36;27.28;99055.06;5045674;28;20029;-86
2023/07/20 08:50:34;;;;;;;4.28;1.73;;;;;;;38.29;27.88;99041.31;5043380;28;20507;-87
2023/07/20 08:53:02;;;;;;;6.20;2.85;;;;;;;38.46;27.43;99044.38;5045340;28;20025;-88
2023/07/20 08:55:29;;;;;;;3.13;1.83;;;;;;;38.49;27.18;99035.69;5046045;28;20040;-86
2023/07/20 08:57:56;;;;;;;3.33;1.42;;;;;;;38.82;26.39;99051.22;5059080;28;21699;-83
2023/07/20 09:00:22;;;;;;;3.35;1.75;;;;;;;38.26;26.63;99025.22;5041041;28;20025;-86
2023/07/20 09:02:52;;;;;;;2.67;1.80;;;;;;;38.36;26.02;99037.66;5043843;28;20881;-86
2023/07/20 09:05:19;;;;;;;3.05;1.83;;;;;;;38.29;26.62;99041.31;5043740;28;20017;-85
2023/07/20 09:07:44;;;;;;;6.55;3.20;;;;;;;38.42;26.03;99039.53;5040596;28;20021;-83
2023/07/20 09:10:10;;;;;;;4.43;1.95;;;;;;;38.60;26.17;99027.78;5042264;28;20044;-84
2023/07/20 09:12:40;;;;;;;6.82;2.80;;;;;;;38.79;25.79;99004.81;5037105;28;20033;-83
2023/07/20 09:15:07;;;;;;;4.57;3.05;;;;;;;38.81;24.97;99010.94;5043557;28;20041;-86
2023/07/20 09:17:33;;;;;;;8.63;2.50;;;;;;;38.59;25.38;98990.28;5039939;28;20032;-82
2023/07/20 09:19:58;;;;;;;2.63;1.73;;;;;;;38.61;25.43;98997.25;5039665;28;20029;-85
2023/07/20 09:22:31;;;;;;;3.53;1.98;;;;;;;38.58;25.57;99003.22;5040104;28;20072;-83
2023/07/20 09:24:58;;;;;;;8.75;2.55;;;;;;;38.65;25.72;99001.31;5041012;28;20020;-82
2023/07/20 09:27:36;;;;;;;3.65;2.42;;;;;;;38.53;25.52;99004.94;5041271;28;20564;-83
2023/07/20 09:30:01;;;;;;;3.70;2.17;;;;;;;38.23;25.41;98984.34;5042587;28;20036;-81
2023/07/20 09:32:27;;;;;;;5.13;2.00;;;;;;;38.64;26.10;98993.25;5044578;28;20025;-84
2023/07/20 09:34:53;;;;;;;6.15;2.40;;;;;;;38.65;26.30;98976.50;5046907;28;20021;-82
2023/07/20 09:37:22;;;;;;;2.88;2.20;;;;;;;38.70;28.26;98981.34;5062482;28;20098;-83
2023/07/20 09:39:51;;;;;;;4.38;2.47;;;;;;;38.99;27.65;98998.25;5045881;28;20028;-83
2023/07/20 09:42:17;;;;;;;3.08;2.15;;;;;;;39.13;26.18;98957.66;5046780;28;20033;-84
2023/07/20 09:44:44;;;;;;;3.38;1.90;;;;;;;39.22;28.17;98987.50;5042911;28;20060;-86
2023/07/20 09:47:10;;;;;;;2.95;1.88;;;;;;;39.40;26.08;98966.53;5056162;28;20056;-85
2023/07/20 09:49:42;;;;;;;4.47;2.13;;;;;;;39.27;26.39;98973.03;5043440;28;20067;-85
2023/07/20 09:52:11;;;;;;;3.22;2.40;;;;;;;39.17;25.84;98973.53;5049311;28;20499;-85
2023/07/20 09:54:38;;;;;;;2.90;1.90;;;;;;;38.99;27.45;98968.81;5045375;28;20043;-85
2023/07/20 09:57:07;;;;;;;4.80;2.70;;;;;;;38.46;26.17;98971.94;5043687;28;20025;-85
2023/07/20 09:59:32;;;;;;;4.10;2.15;;;;;;;38.05;27.70;98964.94;5040049;28;20085;-84
2023/07/20 10:02:01;;;;;;;4.05;2.45;;;;;;;38.27;28.86;98933.31;5043699;28;20602;-85
2023/07/20 10:04:29;;;;;;;7.45;2.60;;;;;;;38.76;27.67;98966.69;5039724;28;20041;-85
2023/07/20 10:06:56;;;;;;;3.65;3.00;;;;;;;38.71;27.94;98957.38;5048030;28;20098;-83
2023/07/20 10:09:24;;;;;;;3.22;1.90;;;;;;;39.01;26.07;98928.06;5044622;28;20029;-86
2023/07/20 10:11:53;;;;;;;3.85;1.75;;;;;;;38.71;29.30;98947.19;5059227;28;20408;-86
2023/07/20 10:14:20;;;;;;;3.80;2.25;;;;;;;38.91;27.40;98940.69;5042816;28;20045;-83
2023/07/20 10:16:58;;;;;;;5.47;2.47;;;;;;;38.58;28.54;98936.28;5047564;28;20032;-84
2023/07/20 10:19:42;;;;;;;5.45;2.28;;;;;;;38.52;28.51;98924.22;5043375;28;20029;-83
2023/07/20 10:22:14;;;;;;;3.58;2.50;;;;;;;38.45;26.39;98899.50;5042702;28;20033;-84
2023/07/20 10:24:44;;;;;;;3.80;2.05;;;;;;;38.56;25.71;98917.22;5037546;28;20063;-84
2023/07/20 10:27:10;;;;;;;4.75;2.05;;;;;;;39.20;24.17;98917.09;5041696;28;20087;-84
2023/07/20 10:29:37;;;;;;;3.42;1.90;;;;;;;39.03;27.35;98908.53;5044467;28;20474;-83
2023/07/20 10:32:03;;;;;;;3.97;2.47;;;;;;;39.14;24.50;98884.94;5043473;28;20067;-83
2023/07/20 10:34:28;;;;;;;2.22;1.58;;;;;;;38.99;24.91;98899.91;5041275;28;20052;-84
2023/07/20 10:36:54;;;;;;;2.15;1.50;;;;;;;39.00;26.97;98890.53;5038973;28;20107;-83
2023/07/20 10:39:24;;;;;;;2.63;1.33;;;;;;;38.87;26.83;98887.94;5040606;28;20055;-85
2023/07/20 10:41:50;;;;;;;3.17;2.53;;;;;;;39.45;25.21;98891.38;5056915;28;20083;-84
2023/07/20 10:44:20;;;;;;;4.93;2.92;;;;;;;38.91;24.56;98875.38;5039956;28;20476;-83
2023/07/20 10:46:46;;;;;;;8.27;2.78;;;;;;;39.48;25.34;98888.13;5040470;28;20730;-84
2023/07/20 10:49:13;;;;;;;3.67;2.25;;;;;;;40.05;23.93;98887.88;5041677;28;20044;-83
2023/07/20 10:51:47;;;;;;;2.50;1.60;;;;;;;39.62;24.34;98895.19;5039171;28;20498;-84
2023/07/20 10:54:16;;;;;;;7.55;3.45;;;;;;;40.10;22.32;98891.63;5039210;28;20063;-83
2023/07/20 10:56:42;;;;;;;4.25;2.35;;;;;;;39.77;23.18;98869.13;5040316;28;20024;-84
2023/07/20 10:59:23;;;;;;;3.53;2.58;;;;;;;39.68;25.69;98877.72;5040606;28;20021;-83
2023/07/20 11:01:49;;;;;;;11.00;2.53;;;;;;;39.07;25.11;98864.81;5043420;28;20036;-83
2023/07/20 11:04:18;;;;;;;2.50;1.85;;;;;;;39.36;25.09;98875.13;5042957;28;20020;-84
2023/07/20 11:06:45;;;;;;;9.88;4.07;;;;;;;39.79;24.65;98873.31;5040761;28;20025;-83
2023/07/20 11:09:14;;;;;;;3.17;2.20;;;;;;;40.04;26.37;98864.09;5044584;28;20029;-83
2023/07/20 11:11:47;;;;;;;4.05;2.38;;;;;;;40.13;27.17;98856.31;5039117;28;20040;-82
2023/07/20 11:14:40;;;;;;;4.75;2.88;;;;;;;40.35;23.74;98871.25;5043872;28;20044;-82
2023/07/20 11:17:17;;;;;;;5.13;2.33;;;;;;;40.27;24.64;98866.06;5032194;28;20052;-82
2023/07/20 11:19:43;;;;;;;3.63;1.73;;;;;;;40.48;22.38;98861.94;5042476;28;20024;-83
2023/07/20 11:22:09;;;;;;;7.05;1.88;;;;;;;40.44;23.08;98850.53;5045171;28;20025;-83
2023/07/20 11:24:39;;;;;;;4.07;2.00;;;;;;;39.51;24.28;98816.78;5044941;28;20506;-81
2023/07/20 11:27:05;;;;;;;3.42;1.60;;;;;;;39.79;23.91;98859.53;5046663;28;20032;-81
2023/07/20 11:29:31;;;;;;;3.40;2.03;;;;;;;39.26;23.85;98835.38;5042280;28;20033;-83
2023/07/20 11:31:58;;;;;;;3.78;1.98;;;;;;;39.69;26.58;98839.94;5044774;28;20468;-83
2023/07/20 11:34:24;;;;;;;5.40;2.40;;;;;;;39.30;24.66;98831.06;5041624;28;21784;-83